Time;durP1;ratioP1;P1;durP2;ratioP2;P2;SDS_P1;SDS_P2;PMS_P1;PMS_P2;Temp;Humidity;BMP_temperature;BMP_pressure;BME280_temperature;BME280_humidity;BME280_pressure;Samples;Min_cycle;Max_cycle;Signal;HPM_P1;HPM_P2
2023/08/12 00:00:33;;;;;;;9.63;3.80;;;19.70;99.90;;;;;;5060444;28;20053;-70
2023/08/12 00:02:59;;;;;;;12.90;4.15;;;19.60;99.90;;;;;;5051530;28;256206;-71
2023/08/12 00:05:25;;;;;;;10.15;3.83;;;19.60;99.90;;;;;;5059686;28;20064;-70
2023/08/12 00:07:51;;;;;;;11.93;4.20;;;19.60;99.90;;;;;;5050606;28;271388;-71
2023/08/12 00:10:17;;;;;;;12.20;4.20;;;19.60;99.90;;;;;;5067021;28;20060;-69
2023/08/12 00:12:43;;;;;;;10.45;4.70;;;19.60;99.90;;;;;;5059632;28;262439;-71
2023/08/12 00:15:10;;;;;;;11.50;4.53;;;19.60;99.90;;;;;;5072384;28;20052;-70
2023/08/12 00:17:37;;;;;;;12.23;4.93;;;19.50;99.90;;;;;;5055405;28;263840;-72
2023/08/12 00:20:10;;;;;;;14.93;5.60;;;19.50;99.90;;;;;;5064809;28;20048;-70
2023/08/12 00:22:37;;;;;;;13.70;5.30;;;19.50;99.90;;;;;;5052591;28;255751;-72
2023/08/12 00:25:03;;;;;;;10.57;4.68;;;19.40;99.90;;;;;;5076679;28;20059;-69
2023/08/12 00:27:29;;;;;;;14.23;4.90;;;19.40;99.90;;;;;;5056914;28;258589;-69
2023/08/12 00:29:56;;;;;;;11.85;4.60;;;19.40;99.90;;;;;;5075650;28;20044;-69
2023/08/12 00:32:22;;;;;;;10.15;4.63;;;19.40;99.90;;;;;;5050906;28;266661;-69
2023/08/12 00:34:48;;;;;;;11.95;4.53;;;19.40;99.90;;;;;;5068645;28;20048;-71
2023/08/12 00:37:14;;;;;;;10.90;4.10;;;19.40;99.90;;;;;;5053902;28;257483;-70
2023/08/12 00:39:40;;;;;;;11.13;4.50;;;19.40;99.90;;;;;;5081135;28;20637;-69
2023/08/12 00:42:06;;;;;;;11.70;4.80;;;19.40;99.90;;;;;;5049310;28;266976;-70
2023/08/12 00:44:32;;;;;;;12.55;4.63;;;19.40;99.90;;;;;;5068758;28;20055;-70
2023/08/12 00:46:59;;;;;;;13.57;4.90;;;19.40;99.90;;;;;;5051178;28;272705;-71
2023/08/12 00:49:27;;;;;;;10.63;4.22;;;19.40;99.90;;;;;;5074808;28;20067;-71
2023/08/12 00:51:54;;;;;;;10.32;4.43;;;19.40;99.90;;;;;;5036674;28;263265;-70
2023/08/12 00:54:21;;;;;;;11.48;5.13;;;19.40;99.90;;;;;;5076140;28;20604;-71
2023/08/12 00:56:49;;;;;;;13.57;5.03;;;19.30;99.90;;;;;;5050871;28;261832;-71
2023/08/12 00:59:17;;;;;;;13.73;4.97;;;19.30;99.90;;;;;;5067024;28;20056;-70
2023/08/12 01:01:44;;;;;;;11.13;4.50;;;19.30;99.90;;;;;;5048381;28;259720;-71
2023/08/12 01:04:10;;;;;;;11.15;4.88;;;19.30;99.90;;;;;;5073538;28;20056;-70
2023/08/12 01:06:40;;;;;;;12.07;4.70;;;19.20;99.90;;;;;;5048045;28;263778;-70
2023/08/12 01:09:07;;;;;;;10.60;4.22;;;19.30;99.90;;;;;;5068440;28;20056;-70
2023/08/12 01:11:42;;;;;;;11.50;4.40;;;19.20;99.90;;;;;;5068677;28;20033;-69
2023/08/12 01:14:17;;;;;;;10.40;4.15;;;19.20;99.90;;;;;;5054120;28;20045;-70
2023/08/12 01:16:47;;;;;;;15.27;5.00;;;19.20;99.90;;;;;;5042922;28;270606;-70
2023/08/12 01:19:35;;;;;;;10.48;4.35;;;19.20;99.90;;;;;;5066372;28;20044;-70
2023/08/12 01:22:04;;;;;;;10.65;4.75;;;19.10;99.90;;;;;;5049930;28;276443;-69
2023/08/12 01:24:38;;;;;;;11.85;4.70;;;19.10;99.90;;;;;;5066820;28;20060;-69
2023/08/12 01:27:05;;;;;;;10.75;4.68;;;19.10;99.90;;;;;;5041471;28;262358;-69
2023/08/12 01:29:38;;;;;;;11.27;4.60;;;19.10;99.90;;;;;;5070296;28;20045;-70
2023/08/12 01:32:12;;;;;;;10.85;4.57;;;19.10;99.90;;;;;;5047023;28;264091;-71
2023/08/12 01:34:53;;;;;;;12.73;4.70;;;19.10;99.90;;;;;;5074459;28;20063;-72
2023/08/12 01:37:24;;;;;;;10.48;4.10;;;19.10;99.90;;;;;;5051788;28;272620;-69
2023/08/12 01:39:53;;;;;;;9.57;3.95;;;19.00;99.90;;;;;;5079275;28;20052;-69
2023/08/12 01:42:20;;;;;;;11.57;4.60;;;19.00;99.90;;;;;;5049112;28;216779;-69
2023/08/12 01:44:47;;;;;;;16.08;5.30;;;19.00;99.90;;;;;;5072956;28;20048;-72
2023/08/12 01:47:14;;;;;;;12.13;5.32;;;19.00;99.90;;;;;;5057936;28;258604;-70
2023/08/12 01:49:40;;;;;;;11.13;4.88;;;19.00;99.90;;;;;;5070139;28;20056;-70
2023/08/12 01:52:06;;;;;;;13.45;5.22;;;19.10;99.90;;;;;;5034021;28;263488;-70
2023/08/12 01:54:33;;;;;;;10.85;5.03;;;19.00;99.90;;;;;;5074289;28;20048;-70
2023/08/12 01:57:01;;;;;;;12.02;5.50;;;19.00;99.90;;;;;;5052804;28;271017;-69
2023/08/12 01:59:28;;;;;;;13.93;5.20;;;19.00;99.90;;;;;;5075525;28;20052;-70
2023/08/12 02:01:54;;;;;;;13.70;6.27;;;19.00;99.90;;;;;;5043984;28;264919;-70
2023/08/12 02:04:20;;;;;;;12.07;6.30;;;19.00;99.90;;;;;;5069723;28;20064;-70
2023/08/12 02:06:46;;;;;;;13.68;6.40;;;18.90;99.90;;;;;;5047755;28;260536;-70
2023/08/12 02:09:12;;;;;;;15.85;6.78;;;18.90;99.90;;;;;;5071482;28;20048;-70
2023/08/12 02:11:38;;;;;;;12.63;6.38;;;19.00;99.90;;;;;;5053473;28;276333;-70
2023/08/12 02:14:04;;;;;;;15.45;7.20;;;19.00;99.90;;;;;;5086502;28;20060;-70
2023/08/12 02:16:30;;;;;;;16.25;7.22;;;19.00;99.90;;;;;;5070657;28;20526;-70
2023/08/12 02:18:56;;;;;;;17.15;7.25;;;19.00;99.90;;;;;;5051435;28;267443;-70
2023/08/12 02:21:22;;;;;;;17.58;7.70;;;19.00;99.90;;;;;;5076147;28;20047;-70
2023/08/12 02:23:48;;;;;;;15.07;7.28;;;19.00;99.90;;;;;;5066799;28;257618;-71
2023/08/12 02:26:15;;;;;;;15.27;7.35;;;19.00;99.90;;;;;;5068125;28;20059;-69
2023/08/12 02:28:41;;;;;;;12.43;6.90;;;19.00;99.90;;;;;;5054834;28;257490;-72
2023/08/12 02:31:07;;;;;;;17.55;8.27;;;19.00;99.90;;;;;;5070384;28;20634;-69
2023/08/12 02:33:33;;;;;;;15.07;8.43;;;19.00;99.90;;;;;;5068004;28;262068;-69
2023/08/12 02:35:59;;;;;;;14.88;8.18;;;19.00;99.90;;;;;;5064904;28;20073;-69
2023/08/12 02:38:26;;;;;;;15.38;8.27;;;19.00;99.90;;;;;;5058860;28;264053;-69
2023/08/12 02:40:52;;;;;;;13.48;8.30;;;19.00;99.90;;;;;;5070426;28;20520;-69
2023/08/12 02:43:18;;;;;;;14.35;7.90;;;19.00;99.90;;;;;;5054869;28;151673;-70
2023/08/12 02:45:44;;;;;;;13.85;7.85;;;19.00;99.90;;;;;;5071976;28;20556;-70
2023/08/12 02:48:11;;;;;;;15.43;8.65;;;18.90;99.90;;;;;;5051505;28;264973;-69
2023/08/12 02:50:38;;;;;;;15.75;7.80;;;19.00;99.90;;;;;;5064282;28;20149;-71
2023/08/12 02:53:05;;;;;;;16.73;8.93;;;18.90;99.90;;;;;;5037637;28;258368;-70
2023/08/12 02:55:32;;;;;;;15.63;8.30;;;18.90;99.90;;;;;;5064060;28;20048;-70
2023/08/12 02:57:58;;;;;;;17.83;9.10;;;18.90;99.90;;;;;;5055809;28;264317;-69
2023/08/12 03:00:24;;;;;;;16.23;8.70;;;18.90;99.90;;;;;;5064929;28;20044;-69
2023/08/12 03:02:51;;;;;;;15.77;8.63;;;18.80;99.90;;;;;;5048160;28;253647;-70
2023/08/12 03:05:17;;;;;;;15.82;8.48;;;18.80;99.90;;;;;;5070308;28;20052;-70
2023/08/12 03:07:43;;;;;;;18.33;9.48;;;18.80;99.90;;;;;;5050246;28;260491;-71
2023/08/12 03:10:09;;;;;;;16.20;9.60;;;18.80;99.90;;;;;;5067120;28;20049;-70
2023/08/12 03:12:36;;;;;;;17.42;9.38;;;18.80;99.90;;;;;;5056182;28;266704;-70
2023/08/12 03:15:03;;;;;;;16.13;8.70;;;18.80;99.90;;;;;;5077211;28;20045;-70
2023/08/12 03:17:30;;;;;;;18.70;9.30;;;18.70;99.90;;;;;;5050441;28;254796;-70
2023/08/12 03:19:59;;;;;;;15.55;9.57;;;18.70;99.90;;;;;;5068402;28;20059;-70
2023/08/12 03:22:27;;;;;;;17.83;9.73;;;18.70;99.90;;;;;;5055637;28;221044;-69
2023/08/12 03:24:53;;;;;;;18.00;9.48;;;18.80;99.90;;;;;;5076088;28;20666;-69
2023/08/12 03:27:19;;;;;;;17.33;10.38;;;18.80;99.90;;;;;;5048543;28;258267;-70
2023/08/12 03:29:46;;;;;;;16.10;8.80;;;18.80;99.90;;;;;;5071554;28;20502;-69
2023/08/12 03:32:12;;;;;;;17.70;9.82;;;18.80;99.90;;;;;;5056453;28;257970;-69
2023/08/12 03:34:38;;;;;;;22.05;9.80;;;18.90;99.90;;;;;;5074360;28;20044;-69
2023/08/12 03:37:04;;;;;;;22.95;9.85;;;18.90;99.90;;;;;;5053814;28;262322;-68
2023/08/12 03:39:30;;;;;;;16.73;9.48;;;18.90;99.90;;;;;;5080825;28;20045;-69
2023/08/12 03:41:57;;;;;;;16.13;9.20;;;18.90;99.90;;;;;;5052872;28;264669;-69
2023/08/12 03:44:23;;;;;;;15.95;10.00;;;19.00;99.90;;;;;;5074098;28;20071;-70
2023/08/12 03:46:49;;;;;;;17.10;9.60;;;19.00;99.90;;;;;;5051906;28;253334;-70
2023/08/12 03:49:15;;;;;;;17.00;9.02;;;19.00;99.90;;;;;;5082871;28;20052;-69
2023/08/12 03:51:41;;;;;;;19.92;9.63;;;19.00;99.90;;;;;;5033115;28;267694;-69
2023/08/12 03:54:07;;;;;;;19.13;8.73;;;19.10;99.90;;;;;;5067710;28;20053;-69
2023/08/12 03:56:33;;;;;;;17.20;9.38;;;19.10;99.90;;;;;;5070010;28;20487;-69
2023/08/12 03:58:59;;;;;;;16.30;8.18;;;19.10;99.90;;;;;;5056464;28;237014;-69
2023/08/12 04:01:25;;;;;;;16.38;9.07;;;19.10;99.90;;;;;;5064357;28;20049;-70
2023/08/12 04:03:52;;;;;;;15.75;8.65;;;19.10;99.90;;;;;;5055476;28;261076;-70
2023/08/12 04:06:18;;;;;;;19.27;10.20;;;19.20;99.90;;;;;;5066887;28;20057;-70
2023/08/12 04:08:44;;;;;;;16.98;9.55;;;19.20;99.90;;;;;;5047772;28;85524;-70
2023/08/12 04:11:10;;;;;;;20.48;10.43;;;19.20;99.90;;;;;;5069501;28;20060;-70
2023/08/12 04:13:36;;;;;;;21.17;10.70;;;19.20;99.90;;;;;;5069055;28;272060;-71
2023/08/12 04:16:03;;;;;;;16.70;9.50;;;19.20;99.90;;;;;;5062974;28;20048;-70
2023/08/12 04:18:29;;;;;;;16.58;9.13;;;19.20;99.90;;;;;;5050215;28;258510;-70
2023/08/12 04:20:55;;;;;;;16.73;9.85;;;19.20;99.90;;;;;;5067873;28;20075;-70
2023/08/12 04:23:21;;;;;;;20.85;9.68;;;19.20;99.90;;;;;;5055099;28;256051;-69
2023/08/12 04:25:48;;;;;;;19.30;10.18;;;19.20;99.90;;;;;;5064613;28;20056;-70
2023/08/12 04:28:15;;;;;;;19.48;9.95;;;19.20;99.90;;;;;;5062310;28;254753;-69
2023/08/12 04:30:47;;;;;;;18.77;10.23;;;19.20;99.90;;;;;;5070304;28;20052;-70
2023/08/12 04:33:14;;;;;;;16.33;8.85;;;19.30;99.90;;;;;;5054117;28;269384;-70
2023/08/12 04:35:40;;;;;;;18.63;9.00;;;19.30;99.90;;;;;;5065346;28;20343;-70
2023/08/12 04:38:07;;;;;;;19.17;9.10;;;19.30;99.90;;;;;;5060615;28;268034;-70
2023/08/12 04:40:33;;;;;;;16.55;8.82;;;19.30;99.90;;;;;;5068463;28;20059;-70
2023/08/12 04:43:00;;;;;;;19.70;9.80;;;19.30;99.90;;;;;;5058149;28;257903;-70
2023/08/12 04:45:27;;;;;;;17.42;9.82;;;19.30;99.90;;;;;;5071706;28;20036;-69
2023/08/12 04:47:53;;;;;;;17.52;9.77;;;19.30;99.90;;;;;;5050347;28;267278;-69
2023/08/12 04:50:19;;;;;;;19.55;9.35;;;19.40;99.90;;;;;;5075728;28;20517;-70
2023/08/12 04:52:46;;;;;;;16.52;9.05;;;19.30;99.90;;;;;;5036906;28;266897;-70
2023/08/12 04:55:13;;;;;;;17.15;9.40;;;19.40;99.90;;;;;;5072468;28;20052;-70
2023/08/12 04:57:39;;;;;;;19.45;9.25;;;19.40;99.90;;;;;;5054403;28;264284;-70
2023/08/12 05:00:09;;;;;;;17.98;9.65;;;19.40;99.90;;;;;;5071277;28;20052;-70
2023/08/12 05:02:35;;;;;;;16.75;9.45;;;19.40;99.90;;;;;;5050098;28;250291;-70
2023/08/12 05:05:02;;;;;;;17.73;9.63;;;19.40;99.90;;;;;;5075482;28;20052;-69
2023/08/12 05:07:28;;;;;;;17.92;9.68;;;19.40;99.90;;;;;;5048321;28;267899;-69
2023/08/12 05:09:54;;;;;;;17.48;8.80;;;19.40;99.90;;;;;;5073848;28;20056;-70
2023/08/12 05:12:20;;;;;;;16.75;9.48;;;19.50;99.90;;;;;;5052746;28;258807;-70
2023/08/12 05:14:46;;;;;;;15.35;9.45;;;19.50;99.90;;;;;;5068606;28;20056;-70
2023/08/12 05:17:12;;;;;;;15.52;8.88;;;19.60;99.90;;;;;;5055024;28;29025;-69
2023/08/12 05:19:38;;;;;;;17.67;9.63;;;19.60;99.90;;;;;;5071690;28;20059;-69
2023/08/12 05:22:05;;;;;;;17.50;9.15;;;19.70;99.90;;;;;;5059122;28;256621;-69
2023/08/12 05:24:31;;;;;;;15.35;9.73;;;19.70;99.90;;;;;;5077812;28;20067;-69
2023/08/12 05:26:57;;;;;;;16.75;9.23;;;19.70;99.90;;;;;;5056292;28;257709;-69
2023/08/12 05:29:23;;;;;;;14.88;8.93;;;19.80;99.90;;;;;;5068079;28;20060;-70
2023/08/12 05:31:49;;;;;;;16.85;8.95;;;19.80;99.90;;;;;;5053275;28;261752;-69
2023/08/12 05:34:15;;;;;;;15.68;9.27;;;19.80;99.90;;;;;;5084448;28;20501;-70
2023/08/12 05:36:41;;;;;;;16.98;9.45;;;19.90;99.90;;;;;;5053326;28;264905;-69
2023/08/12 05:39:07;;;;;;;17.67;8.90;;;20.00;99.90;;;;;;5083146;28;20056;-69
2023/08/12 05:41:33;;;;;;;18.23;9.13;;;20.00;99.90;;;;;;5067524;28;20052;-70
2023/08/12 05:43:59;;;;;;;17.30;9.27;;;20.10;99.90;;;;;;5079566;28;192525;-69
2023/08/12 05:46:25;;;;;;;17.73;9.65;;;20.10;99.90;;;;;;5068404;28;20059;-69
2023/08/12 05:48:51;;;;;;;16.45;9.13;;;20.20;99.90;;;;;;5068323;28;258016;-70
2023/08/12 05:51:17;;;;;;;16.25;9.43;;;20.30;99.90;;;;;;5073151;28;20063;-69
2023/08/12 05:53:43;;;;;;;17.15;9.55;;;20.30;99.90;;;;;;5046106;28;186847;-70
2023/08/12 05:56:10;;;;;;;17.40;9.63;;;20.40;99.90;;;;;;5072249;28;20070;-69
2023/08/12 05:58:36;;;;;;;17.70;9.75;;;20.50;99.90;;;;;;5064092;28;258379;-69
2023/08/12 06:01:02;;;;;;;17.83;10.05;;;20.60;99.90;;;;;;5061586;28;20921;-69
2023/08/12 06:03:28;;;;;;;18.02;9.98;;;20.60;99.90;;;;;;5061123;28;270361;-69
2023/08/12 06:05:54;;;;;;;16.52;9.60;;;20.70;99.90;;;;;;5072741;28;20052;-69
2023/08/12 06:08:20;;;;;;;17.60;9.95;;;20.90;99.90;;;;;;5058203;28;254011;-70
2023/08/12 06:10:46;;;;;;;20.92;11.02;;;21.00;99.90;;;;;;5073679;28;20530;-70
2023/08/12 06:13:12;;;;;;;18.88;10.80;;;21.10;99.90;;;;;;5058687;28;268445;-70
2023/08/12 06:15:39;;;;;;;18.77;10.85;;;21.20;99.90;;;;;;5065437;28;20595;-69
2023/08/12 06:18:05;;;;;;;18.83;10.52;;;21.20;99.90;;;;;;5051768;28;29874;-70
2023/08/12 06:20:31;;;;;;;16.60;10.23;;;21.20;99.90;;;;;;5069218;28;20049;-71
2023/08/12 06:22:57;;;;;;;21.17;10.50;;;21.20;99.90;;;;;;5054526;28;272731;-70
2023/08/12 06:25:23;;;;;;;22.65;11.10;;;21.20;99.90;;;;;;5070047;28;20056;-70
2023/08/12 06:27:50;;;;;;;23.42;11.75;;;21.20;99.90;;;;;;5061391;28;267357;-70
2023/08/12 06:30:16;;;;;;;19.40;11.73;;;21.20;99.90;;;;;;5069469;28;20052;-70
2023/08/12 06:32:42;;;;;;;19.80;12.25;;;21.20;99.90;;;;;;5056023;28;261035;-69
2023/08/12 06:35:08;;;;;;;20.85;12.70;;;21.10;99.90;;;;;;5068506;28;20514;-70
2023/08/12 06:37:34;;;;;;;21.00;12.30;;;21.10;99.90;;;;;;5059531;28;272464;-70
2023/08/12 06:40:01;;;;;;;22.13;12.52;;;21.10;99.90;;;;;;5079182;28;20490;-70
2023/08/12 06:42:28;;;;;;;20.98;12.75;;;21.10;99.90;;;;;;5054072;28;257225;-70
2023/08/12 06:44:56;;;;;;;25.55;13.10;;;21.20;99.90;;;;;;5070555;28;20059;-70
2023/08/12 06:47:22;;;;;;;20.35;13.05;;;21.20;99.90;;;;;;5056431;28;280908;-69
2023/08/12 06:49:48;;;;;;;24.42;13.25;;;21.10;99.90;;;;;;5078292;28;20048;-71
2023/08/12 06:52:16;;;;;;;20.33;12.85;;;21.10;99.90;;;;;;5032582;28;273203;-70
2023/08/12 06:54:42;;;;;;;23.23;12.85;;;21.10;99.90;;;;;;5074975;28;20048;-69
2023/08/12 06:57:08;;;;;;;21.60;12.85;;;21.10;99.90;;;;;;5054643;28;275334;-70
2023/08/12 06:59:34;;;;;;;21.88;13.25;;;21.10;99.90;;;;;;5075304;28;20044;-69
2023/08/12 07:02:00;;;;;;;25.67;13.90;;;21.10;99.90;;;;;;5047427;28;271660;-70
2023/08/12 07:04:26;;;;;;;21.85;12.85;;;21.10;99.90;;;;;;5080459;28;20395;-70
2023/08/12 07:06:53;;;;;;;19.38;12.02;;;21.10;99.90;;;;;;5050265;28;281336;-70
2023/08/12 07:09:19;;;;;;;23.05;13.15;;;21.10;99.90;;;;;;5076905;28;20055;-70
2023/08/12 07:11:45;;;;;;;21.73;13.00;;;21.10;99.90;;;;;;5052772;28;263079;-70
2023/08/12 07:14:11;;;;;;;22.02;13.32;;;21.20;99.90;;;;;;5082288;28;20067;-70
2023/08/12 07:16:37;;;;;;;24.83;13.07;;;21.10;99.90;;;;;;5046915;28;261591;-69
2023/08/12 07:19:03;;;;;;;21.88;13.70;;;21.10;99.90;;;;;;5068027;28;20044;-69
2023/08/12 07:21:29;;;;;;;22.40;13.75;;;21.10;99.90;;;;;;5067026;28;20049;-69
2023/08/12 07:23:55;;;;;;;20.70;14.10;;;21.10;99.90;;;;;;5055341;28;261820;-69
2023/08/12 07:26:21;;;;;;;23.67;13.35;;;21.10;99.90;;;;;;5065283;28;20040;-70
2023/08/12 07:28:48;;;;;;;21.63;13.48;;;21.10;99.90;;;;;;5066214;28;255485;-70
2023/08/12 07:31:14;;;;;;;22.88;13.63;;;21.10;99.90;;;;;;5069969;28;20048;-69
2023/08/12 07:33:40;;;;;;;21.00;13.55;;;21.20;99.90;;;;;;5058663;28;266242;-70
2023/08/12 07:36:06;;;;;;;20.70;13.25;;;21.20;99.90;;;;;;5067981;28;20044;-70
2023/08/12 07:38:32;;;;;;;24.65;13.35;;;21.30;99.90;;;;;;5057353;28;275711;-68
2023/08/12 07:40:58;;;;;;;19.85;12.85;;;21.30;99.90;;;;;;5069796;28;20052;-69
2023/08/12 07:43:24;;;;;;;22.63;13.98;;;21.30;99.90;;;;;;5052684;28;268515;-70
2023/08/12 07:45:52;;;;;;;24.65;14.52;;;21.40;99.90;;;;;;5070038;28;20702;-70
2023/08/12 07:48:19;;;;;;;21.90;13.52;;;21.50;99.90;;;;;;5046841;28;66513;-71
2023/08/12 07:50:48;;;;;;;20.80;13.20;;;21.50;99.90;;;;;;5071566;28;20037;-70
2023/08/12 07:53:15;;;;;;;21.23;12.48;;;21.60;99.90;;;;;;5037983;28;270237;-70
2023/08/12 07:55:42;;;;;;;21.73;13.07;;;21.60;99.90;;;;;;5071324;28;20053;-70
2023/08/12 07:58:08;;;;;;;20.23;13.25;;;21.70;99.90;;;;;;5042986;28;159614;-68
2023/08/12 08:00:34;;;;;;;24.48;13.20;;;21.70;99.90;;;;;;5065778;28;20051;-70
2023/08/12 08:03:00;;;;;;;19.45;12.38;;;21.70;99.90;;;;;;5047807;28;256406;-71
2023/08/12 08:05:26;;;;;;;19.50;12.68;;;21.70;99.90;;;;;;5073608;28;20063;-71
2023/08/12 08:07:53;;;;;;;21.48;13.13;;;21.70;99.90;;;;;;5058310;28;274510;-70
2023/08/12 08:10:19;;;;;;;21.63;12.93;;;21.70;99.90;;;;;;5075327;28;20071;-71
2023/08/12 08:12:45;;;;;;;20.45;13.63;;;21.70;99.90;;;;;;5054048;28;157611;-71
2023/08/12 08:15:11;;;;;;;23.48;14.15;;;21.80;99.90;;;;;;5067819;28;20059;-70
2023/08/12 08:17:37;;;;;;;22.55;13.75;;;21.80;99.90;;;;;;5046234;28;270099;-70
2023/08/12 08:20:05;;;;;;;20.35;13.68;;;21.80;99.90;;;;;;5059271;28;20431;-71
2023/08/12 08:22:31;;;;;;;20.65;13.73;;;21.80;99.90;;;;;;5049674;28;215428;-71
2023/08/12 08:24:58;;;;;;;22.02;13.93;;;21.80;99.90;;;;;;5071446;28;20075;-72
2023/08/12 08:27:24;;;;;;;25.38;14.57;;;21.70;99.90;;;;;;5051365;28;253109;-69
2023/08/12 08:29:50;;;;;;;20.60;13.00;;;21.60;99.90;;;;;;5068552;28;20052;-70
2023/08/12 08:32:16;;;;;;;20.95;13.32;;;21.60;99.90;;;;;;5053614;28;84969;-70
2023/08/12 08:34:43;;;;;;;22.50;14.18;;;21.60;99.90;;;;;;5062082;28;20060;-69
2023/08/12 08:37:09;;;;;;;23.92;13.95;;;21.50;99.90;;;;;;5056093;28;105500;-69
2023/08/12 08:39:36;;;;;;;25.42;14.98;;;21.50;99.90;;;;;;5066023;28;20048;-70
2023/08/12 08:42:05;;;;;;;27.25;16.27;;;21.50;99.90;;;;;;5048106;28;262105;-72
2023/08/12 08:44:33;;;;;;;22.40;14.55;;;21.50;99.90;;;;;;5070208;28;20056;-72
2023/08/12 08:47:00;;;;;;;25.55;16.23;;;21.30;99.90;;;;;;5060217;28;32075;-73
2023/08/12 08:49:28;;;;;;;23.52;15.45;;;21.20;99.90;;;;;;5066923;28;20056;-75
2023/08/12 08:51:54;;;;;;;25.98;16.10;;;21.00;99.90;;;;;;5033809;28;251108;-76
2023/08/12 08:54:21;;;;;;;25.20;16.20;;;20.80;99.90;;;;;;5077122;28;20051;-77
2023/08/12 08:56:49;;;;;;;24.45;15.95;;;20.80;99.90;;;;;;5050737;28;260429;-77
2023/08/12 08:59:15;;;;;;;28.25;16.85;;;20.80;99.90;;;;;;5059955;28;20060;-74
2023/08/12 09:01:43;;;;;;;25.95;17.90;;;20.70;99.90;;;;;;5037427;28;265923;-75
2023/08/12 09:04:10;;;;;;;23.67;15.63;;;20.70;99.90;;;;;;5065140;28;20506;-76
2023/08/12 09:06:38;;;;;;;26.02;17.13;;;20.70;99.90;;;;;;5051283;28;254356;-75
2023/08/12 09:09:10;;;;;;;29.23;17.67;;;20.60;99.90;;;;;;5073599;28;20061;-75
2023/08/12 09:11:38;;;;;;;33.97;19.23;;;20.50;99.90;;;;;;5048566;28;248006;-76
2023/08/12 09:14:05;;;;;;;29.45;19.13;;;20.50;99.90;;;;;;5065028;28;20052;-76
2023/08/12 09:16:31;;;;;;;33.40;20.00;;;20.50;99.90;;;;;;5062075;28;20053;-76
2023/08/12 09:18:58;;;;;;;30.33;19.33;;;20.60;99.90;;;;;;5045803;28;61211;-75
2023/08/12 09:21:24;;;;;;;28.38;18.55;;;20.60;99.90;;;;;;5067888;28;20048;-74
2023/08/12 09:23:50;;;;;;;32.90;17.95;;;20.50;99.90;;;;;;5050089;28;179941;-73
2023/08/12 09:26:20;;;;;;;31.30;18.80;;;20.40;99.90;;;;;;5050107;28;20048;-75
2023/08/12 09:28:47;;;;;;;31.85;18.73;;;20.40;99.90;;;;;;5052716;28;191128;-74
2023/08/12 09:31:23;;;;;;;33.83;18.60;;;20.40;99.90;;;;;;5067127;28;20049;-75
2023/08/12 09:33:50;;;;;;;28.00;18.15;;;20.40;99.90;;;;;;5054297;28;33315;-76
2023/08/12 09:36:17;;;;;;;30.30;18.88;;;20.40;99.90;;;;;;5035931;28;20060;-75
2023/08/12 09:38:44;;;;;;;25.80;16.92;;;20.40;99.90;;;;;;5040701;28;269270;-76
2023/08/12 09:41:10;;;;;;;26.15;15.40;;;20.30;99.90;;;;;;5037867;28;20064;-75
2023/08/12 09:43:43;;;;;;;26.48;16.17;;;20.20;99.90;;;;;;5044456;28;268994;-75
2023/08/12 09:46:13;;;;;;;20.83;12.70;;;20.10;99.90;;;;;;5043795;28;20064;-75
2023/08/12 09:48:40;;;;;;;19.30;9.95;;;20.10;99.90;;;;;;5017494;28;124305;-73
2023/08/12 09:51:07;;;;;;;18.05;8.98;;;20.00;99.90;;;;;;5066645;28;20076;-74
2023/08/12 09:53:34;;;;;;;14.77;7.18;;;19.90;99.90;;;;;;5028549;28;93806;-74
2023/08/12 09:56:06;;;;;;;14.60;7.20;;;19.80;99.90;;;;;;5063144;28;20060;-74
2023/08/12 09:58:36;;;;;;;14.52;6.47;;;19.80;99.90;;;;;;5053178;28;257324;-75
2023/08/12 10:01:07;;;;;;;14.15;6.00;;;19.70;99.90;;;;;;5056990;28;20088;-75
2023/08/12 10:03:35;;;;;;;13.90;4.82;;;19.60;99.90;;;;;;5057559;28;126416;-75
2023/08/12 10:06:04;;;;;;;19.00;5.40;;;19.40;99.90;;;;;;5044871;28;20064;-75
2023/08/12 10:08:32;;;;;;;21.40;5.50;;;19.40;99.90;;;;;;5039325;28;32368;-77
2023/08/12 10:10:58;;;;;;;49.03;5.90;;;19.30;99.90;;;;;;5069893;28;20507;-75
2023/08/12 10:13:25;;;;;;;15.45;5.65;;;19.30;99.90;;;;;;5061281;28;197347;-74
2023/08/12 10:15:51;;;;;;;17.05;6.18;;;19.40;99.90;;;;;;5070256;28;20056;-76
2023/08/12 10:18:19;;;;;;;14.80;6.00;;;19.40;99.90;;;;;;5057890;28;270494;-74
2023/08/12 10:20:47;;;;;;;16.45;6.13;;;19.50;99.90;;;;;;5069812;28;20052;-74
2023/08/12 10:23:16;;;;;;;15.27;6.28;;;19.50;99.90;;;;;;5065393;28;274269;-75
2023/08/12 10:25:44;;;;;;;15.68;5.85;;;19.50;99.90;;;;;;5067527;28;20061;-74
2023/08/12 10:28:12;;;;;;;17.75;5.65;;;19.70;99.90;;;;;;5053958;28;221230;-74
2023/08/12 10:30:41;;;;;;;15.77;5.18;;;19.70;99.90;;;;;;5070672;28;20060;-75
2023/08/12 10:33:09;;;;;;;15.48;5.78;;;19.70;99.90;;;;;;5056684;28;215433;-75
2023/08/12 10:35:44;;;;;;;23.75;5.20;;;19.80;99.90;;;;;;5066043;28;20056;-75
2023/08/12 10:38:16;;;;;;;15.80;4.90;;;19.90;99.90;;;;;;5030860;28;75459;-74
2023/08/12 10:40:43;;;;;;;12.45;5.03;;;19.90;99.90;;;;;;5067856;28;20056;-74
2023/08/12 10:43:10;;;;;;;12.07;5.57;;;20.00;99.90;;;;;;5047104;28;266588;-74
2023/08/12 10:45:52;;;;;;;14.32;5.00;;;20.10;99.90;;;;;;5063312;28;20057;-74
2023/08/12 10:48:23;;;;;;;12.27;4.25;;;20.20;99.90;;;;;;5038760;28;274391;-74
2023/08/12 10:50:53;;;;;;;11.52;4.80;;;20.20;99.90;;;;;;5051281;28;20056;-74
2023/08/12 10:53:33;;;;;;;9.35;3.92;;;20.20;99.90;;;;;;5029436;28;268293;-72
2023/08/12 10:56:02;;;;;;;9.40;2.95;;;20.20;99.90;;;;;;5065130;28;20048;-72
2023/08/12 10:58:33;;;;;;;9.00;3.10;;;20.10;99.90;;;;;;5045530;28;173524;-73
2023/08/12 11:00:59;;;;;;;9.55;2.92;;;20.10;99.90;;;;;;5064334;28;20056;-72
2023/08/12 11:03:25;;;;;;;8.70;2.88;;;20.00;99.90;;;;;;5058945;28;269587;-72
2023/08/12 11:05:55;;;;;;;8.43;2.97;;;20.00;99.90;;;;;;5067951;28;20052;-73
2023/08/12 11:08:29;;;;;;;7.57;2.40;;;19.90;99.90;;;;;;5055112;28;260589;-74
2023/08/12 11:11:01;;;;;;;6.07;1.73;;;19.90;99.90;;;;;;5052772;28;20503;-73
2023/08/12 11:13:28;;;;;;;9.63;1.80;;;19.70;99.90;;;;;;5066590;28;255080;-74
2023/08/12 11:16:09;;;;;;;6.70;1.85;;;19.60;99.90;;;;;;5072878;28;20064;-75
2023/08/12 11:18:36;;;;;;;6.45;1.70;;;19.60;99.90;;;;;;5050187;28;276540;-75
2023/08/12 11:21:03;;;;;;;6.13;1.90;;;19.70;99.90;;;;;;5069281;28;20576;-74
2023/08/12 11:23:29;;;;;;;7.10;2.03;;;19.80;99.90;;;;;;5047456;28;210284;-75
2023/08/12 11:25:55;;;;;;;7.18;1.95;;;19.90;99.90;;;;;;5063235;28;20060;-74
2023/08/12 11:28:24;;;;;;;7.70;2.40;;;20.00;99.90;;;;;;5054362;28;223855;-73
2023/08/12 11:30:50;;;;;;;7.45;1.90;;;20.10;99.90;;;;;;5067081;28;20053;-72
2023/08/12 11:33:18;;;;;;;7.35;2.00;;;20.20;99.90;;;;;;5060503;28;265474;-73
2023/08/12 11:35:44;;;;;;;6.95;2.00;;;20.10;99.90;;;;;;5065724;28;20063;-73
2023/08/12 11:38:10;;;;;;;6.78;2.20;;;20.10;99.90;;;;;;5059138;28;253388;-75
2023/08/12 11:40:36;;;;;;;7.90;2.17;;;20.00;99.90;;;;;;5069142;28;20053;-75
2023/08/12 11:43:03;;;;;;;7.90;2.45;;;20.00;99.90;;;;;;5060950;28;255327;-74
2023/08/12 11:45:29;;;;;;;7.95;3.00;;;20.00;99.90;;;;;;5066737;28;20056;-73
2023/08/12 11:47:56;;;;;;;7.93;3.08;;;20.10;99.90;;;;;;5045409;28;219697;-73
2023/08/12 11:50:23;;;;;;;8.55;2.55;;;20.10;99.90;;;;;;5067986;28;20058;-72
2023/08/12 11:52:50;;;;;;;8.05;2.58;;;20.10;99.90;;;;;;5031478;28;254032;-76
2023/08/12 11:55:17;;;;;;;9.85;2.70;;;20.00;99.90;;;;;;5068067;28;20728;-74
2023/08/12 11:57:43;;;;;;;8.13;2.60;;;19.90;99.90;;;;;;5049528;28;264468;-75
2023/08/12 12:00:15;;;;;;;9.48;2.50;;;19.90;99.90;;;;;;5064576;28;20071;-74
2023/08/12 12:02:52;;;;;;;6.93;2.00;;;19.80;99.90;;;;;;5051941;28;41869;-75
2023/08/12 12:05:22;;;;;;;8.90;2.25;;;19.60;99.90;;;;;;5067903;28;20053;-76
2023/08/12 12:07:49;;;;;;;8.60;2.40;;;19.30;99.90;;;;;;5065974;28;29640;-75
2023/08/12 12:10:33;;;;;;;9.23;2.42;;;19.20;99.90;;;;;;5044608;28;20066;-76
2023/08/12 12:13:01;;;;;;;8.25;2.25;;;19.20;99.90;;;;;;5056292;28;50086;-75
2023/08/12 12:15:27;;;;;;;10.85;2.88;;;19.40;99.90;;;;;;5064185;28;20060;-74
2023/08/12 12:17:53;;;;;;;10.43;2.63;;;19.70;99.90;;;;;;5026266;28;238186;-75
2023/08/12 12:20:21;;;;;;;8.90;2.58;;;20.00;99.90;;;;;;5031112;28;20053;-74
2023/08/12 12:22:48;;;;;;;9.68;2.53;;;20.00;99.90;;;;;;5043915;28;275099;-75
2023/08/12 12:25:18;;;;;;;10.43;2.45;;;20.00;99.90;;;;;;5066483;28;20466;-75
2023/08/12 12:27:46;;;;;;;9.77;2.38;;;19.90;99.90;;;;;;5056060;28;104978;-74
2023/08/12 12:30:13;;;;;;;7.82;2.05;;;20.00;99.90;;;;;;5058822;28;20052;-72